createdAt,value
2019-03-12T00:01:00.872Z,72.60
2019-03-12T00:03:33.058Z,73.30
2019-03-12T00:06:24.598Z,74.00
2019-03-12T00:08:52.707Z,74.90
2019-03-12T00:11:21.830Z,75.80
2019-03-12T00:13:50.364Z,76.80
2019-03-12T00:16:18.526Z,77.80
2019-03-12T00:18:51.654Z,78.00
2019-03-12T00:21:46.449Z,77.70
2019-03-12T00:24:19.532Z,78.80
2019-03-12T00:26:47.679Z,79.20
2019-03-12T00:29:23.351Z,79.60
2019-03-12T00:31:51.981Z,79.60
2019-03-12T00:34:22.275Z,79.80
2019-03-12T00:36:51.201Z,81.40
2019-03-12T00:39:20.700Z,82.10
2019-03-12T00:41:48.866Z,81.80
2019-03-12T00:44:18.216Z,81.80
2019-03-12T00:46:52.128Z,82.10
2019-03-12T00:49:27.036Z,82.20
2019-03-12T00:52:00.893Z,82.30
2019-03-12T00:54:33.361Z,82.40
2019-03-12T00:57:04.838Z,82.20
2019-03-12T00:59:41.127Z,82.30
2019-03-12T01:02:15.131Z,82.30
2019-03-12T01:04:44.959Z,82.90
2019-03-12T01:07:16.014Z,83.00
2019-03-12T01:09:44.901Z,83.30
2019-03-12T01:12:16.072Z,83.30
2019-03-12T01:14:59.214Z,82.50
2019-03-12T01:17:37.735Z,82.00
2019-03-12T01:20:08.486Z,81.00
2019-03-12T01:22:37.341Z,80.20
2019-03-12T01:25:06.602Z,80.20
2019-03-12T01:27:36.161Z,80.00
2019-03-12T01:30:18.318Z,80.40
2019-03-12T01:32:54.296Z,80.80
2019-03-12T01:35:25.997Z,81.20
2019-03-12T01:38:16.166Z,81.10
2019-03-12T01:40:49.938Z,82.20
2019-03-12T01:43:22.207Z,83.90
2019-03-12T01:45:53.443Z,85.00
2019-03-12T01:48:23.303Z,85.20
2019-03-12T01:50:57.021Z,86.00
2019-03-12T01:53:32.364Z,86.90
2019-03-12T01:56:03.123Z,88.70
2019-03-12T01:58:54.026Z,89.60
2019-03-12T02:01:26.770Z,86.90
2019-03-12T02:04:01.687Z,86.50
2019-03-12T02:06:33.794Z,87.30
2019-03-12T02:09:06.902Z,88.00
2019-03-12T02:11:38.121Z,87.30
2019-03-12T02:14:26.530Z,87.80
2019-03-12T02:16:59.297Z,86.10
2019-03-12T02:19:29.879Z,84.30
2019-03-12T02:21:58.544Z,84.40
2019-03-12T02:24:34.813Z,84.40
2019-03-12T02:27:06.043Z,84.40
2019-03-12T02:29:34.415Z,84.50
2019-03-12T02:32:10.063Z,85.10
2019-03-12T02:34:43.390Z,85.80
2019-03-12T02:37:18.028Z,86.90
2019-03-12T02:39:50.218Z,88.10
2019-03-12T02:42:19.499Z,89.10
2019-03-12T02:44:51.494Z,90.00
2019-03-12T02:47:25.707Z,90.50
2019-03-12T02:50:00.275Z,91.00
2019-03-12T02:52:29.393Z,91.30
2019-03-12T02:55:08.593Z,91.10
2019-03-12T02:57:43.558Z,90.20
2019-03-12T03:00:21.497Z,90.10
2019-03-12T03:02:52.373Z,90.70
2019-03-12T03:05:26.234Z,90.80
2019-03-12T03:08:05.756Z,91.80
2019-03-12T03:10:40.140Z,92.10
2019-03-12T03:13:18.829Z,92.00
2019-03-12T03:15:57.393Z,92.40
2019-03-12T03:18:29.359Z,92.40
2019-03-12T03:21:10.937Z,93.10
2019-03-12T03:23:39.705Z,93.20
2019-03-12T03:26:12.809Z,93.40
2019-03-12T03:28:44.285Z,93.30
2019-03-12T03:31:19.683Z,92.70
2019-03-12T03:33:48.327Z,92.30
2019-03-12T03:36:22.228Z,91.80
2019-03-12T03:38:53.696Z,91.90
2019-03-12T03:41:34.479Z,91.60
2019-03-12T03:44:04.784Z,91.30
2019-03-12T03:46:36.290Z,91.40
2019-03-12T03:49:06.246Z,91.70
2019-03-12T03:51:42.379Z,92.50
2019-03-12T03:54:14.562Z,93.30
2019-03-12T03:56:46.840Z,93.40
2019-03-12T03:59:17.944Z,93.10
2019-03-12T04:01:50.381Z,93.20
2019-03-12T04:04:38.128Z,93.40
2019-03-12T04:07:15.350Z,93.40
2019-03-12T04:09:52.217Z,93.70
2019-03-12T04:12:31.169Z,93.80
2019-03-12T04:15:04.222Z,94.20
2019-03-12T04:17:42.833Z,94.60
2019-03-12T04:20:12.847Z,94.80
2019-03-12T04:22:47.018Z,95.20
2019-03-12T04:25:17.223Z,95.50
2019-03-12T04:27:51.042Z,96.20
2019-03-12T04:30:31.552Z,96.40
2019-03-12T04:33:01.426Z,96.30
2019-03-12T04:35:32.901Z,96.40
2019-03-12T04:38:07.252Z,97.30
2019-03-12T04:40:41.952Z,97.50
2019-03-12T04:43:10.175Z,96.30
2019-03-12T04:45:52.039Z,95.50
2019-03-12T04:48:20.887Z,95.30
2019-03-12T04:50:51.408Z,95.70
2019-03-12T04:53:28.622Z,96.20
2019-03-12T04:56:18.490Z,97.00
2019-03-12T04:58:47.838Z,98.90
2019-03-12T05:01:17.461Z,99.50
2019-03-12T05:03:53.205Z,99.70
2019-03-12T05:06:22.748Z,99.90
2019-03-12T05:08:53.224Z,99.30
2019-03-12T05:11:28.381Z,98.20
2019-03-12T05:14:29.356Z,97.50
2019-03-12T05:17:01.542Z,97.10
2019-03-12T05:19:32.586Z,97.60
2019-03-12T05:22:03.618Z,99.00
2019-03-12T05:24:32.873Z,99.90
2019-03-12T05:27:03.246Z,99.90
2019-03-12T05:29:37.706Z,99.60
2019-03-12T05:32:09.594Z,99.30
2019-03-12T05:34:37.686Z,99.00
2019-03-12T05:37:05.921Z,99.70
2019-03-12T05:39:34.017Z,99.90
2019-03-12T05:42:02.153Z,99.90
2019-03-12T05:44:30.262Z,99.90
2019-03-12T05:46:58.850Z,99.90
2019-03-12T05:49:26.936Z,99.90
2019-03-12T05:51:55.086Z,99.90
2019-03-12T05:54:23.174Z,99.90
2019-03-12T05:56:51.454Z,99.90
2019-03-12T05:59:19.610Z,99.90
2019-03-12T06:01:48.409Z,99.90
2019-03-12T06:04:16.506Z,99.90
2019-03-12T06:06:44.649Z,99.90
2019-03-12T06:09:12.742Z,99.80
2019-03-12T06:11:40.894Z,99.70
2019-03-12T06:14:09.047Z,99.90
2019-03-12T06:16:37.193Z,99.90
2019-03-12T06:19:05.388Z,99.90
2019-03-12T06:21:33.517Z,99.90
2019-03-12T06:24:01.606Z,99.90
2019-03-12T06:26:29.763Z,99.90
2019-03-12T06:28:58.205Z,99.90
2019-03-12T06:31:54.770Z,99.90
2019-03-12T06:34:48.809Z,99.90
2019-03-12T06:37:39.006Z,99.90
2019-03-12T06:40:12.626Z,99.90
2019-03-12T06:42:57.754Z,99.90
2019-03-12T06:45:44.130Z,99.90
2019-03-12T06:48:37.445Z,99.90
2019-03-12T06:51:37.302Z,99.90
2019-03-12T06:54:14.642Z,99.90
2019-03-12T06:57:00.713Z,99.90
2019-03-12T06:59:53.881Z,99.90
2019-03-12T07:02:41.867Z,99.90
2019-03-12T07:05:27.059Z,99.90
2019-03-12T07:08:14.620Z,99.90
2019-03-12T07:11:08.014Z,99.90
2019-03-12T07:13:55.250Z,99.90
2019-03-12T07:16:37.490Z,99.90
2019-03-12T07:19:40.038Z,99.90
2019-03-12T07:22:39.241Z,99.90
2019-03-12T07:25:15.661Z,99.90
2019-03-12T07:28:03.122Z,99.80
2019-03-12T07:30:45.302Z,99.40
2019-03-12T07:33:28.004Z,99.20
2019-03-12T07:36:14.000Z,98.80
2019-03-12T07:38:50.668Z,98.90
2019-03-12T07:41:47.382Z,98.50
2019-03-12T07:44:34.882Z,98.00
2019-03-12T07:47:15.043Z,97.70
2019-03-12T07:50:00.806Z,97.80
2019-03-12T07:52:42.831Z,98.00
2019-03-12T07:55:21.601Z,97.90
2019-03-12T07:58:08.571Z,98.10
2019-03-12T08:00:48.806Z,98.40
2019-03-12T08:03:34.583Z,99.20
2019-03-12T08:06:22.085Z,98.80
2019-03-12T08:09:04.449Z,97.10
2019-03-12T08:11:42.918Z,95.70
2019-03-12T08:14:42.215Z,94.40
2019-03-12T08:17:45.450Z,94.10
2019-03-12T08:20:33.033Z,92.10
2019-03-12T08:23:11.987Z,91.40
2019-03-12T08:26:08.138Z,84.10
2019-03-12T08:28:54.277Z,84.00
2019-03-12T08:31:36.561Z,84.30
2019-03-12T08:34:32.957Z,82.20
2019-03-12T08:37:14.014Z,82.40
2019-03-12T08:39:59.818Z,80.90
2019-03-12T08:42:54.106Z,79.50
2019-03-12T08:45:30.899Z,80.10
2019-03-12T08:48:46.229Z,79.00
2019-03-12T08:51:44.565Z,80.40
2019-03-12T08:54:57.942Z,81.30
2019-03-12T08:58:07.331Z,80.50
2019-03-12T09:01:21.720Z,79.70
2019-03-12T09:04:46.758Z,79.50
2019-03-12T09:07:39.384Z,77.50
2019-03-12T09:10:43.473Z,77.50
2019-03-12T09:13:32.127Z,78.70
2019-03-12T09:16:40.068Z,75.90
2019-03-12T09:19:22.040Z,76.00
2019-03-12T09:21:58.778Z,71.00
2019-03-12T09:24:35.574Z,68.80
2019-03-12T09:27:12.114Z,67.90
2019-03-12T09:29:59.583Z,65.40
2019-03-12T09:32:45.038Z,63.00
2019-03-12T09:35:33.400Z,61.90
2019-03-12T09:38:18.569Z,60.20
2019-03-12T09:42:03.480Z,60.90
2019-03-12T09:45:21.038Z,58.50
2019-03-12T09:48:09.315Z,58.60
2019-03-12T09:51:08.908Z,58.70
2019-03-12T09:54:21.496Z,56.90
2019-03-12T09:57:19.478Z,57.00
2019-03-12T10:00:16.916Z,57.10
2019-03-12T10:03:05.003Z,57.30
2019-03-12T10:06:30.426Z,56.70
2019-03-12T10:09:55.159Z,56.30
2019-03-12T10:12:52.342Z,55.50
2019-03-12T10:15:44.648Z,55.10
2019-03-12T10:18:48.170Z,56.20
2019-03-12T10:21:34.376Z,56.40
2019-03-12T10:24:30.579Z,55.90
2019-03-12T10:27:21.006Z,55.10
2019-03-12T10:30:05.231Z,54.20
2019-03-12T10:32:49.711Z,53.30
2019-03-12T10:35:34.206Z,52.90
2019-03-12T10:39:02.463Z,53.10
2019-03-12T10:41:55.587Z,53.10
2019-03-12T10:45:07.226Z,52.50
2019-03-12T10:47:36.726Z,51.80
2019-03-12T10:50:14.901Z,51.60
2019-03-12T10:52:54.598Z,50.20
2019-03-12T10:55:22.835Z,49.40
2019-03-12T10:57:51.094Z,50.60
2019-03-12T11:00:19.402Z,50.00
2019-03-12T11:02:47.771Z,49.40
2019-03-12T11:05:17.963Z,50.60
2019-03-12T11:07:46.366Z,50.70
2019-03-12T11:10:16.240Z,50.50
2019-03-12T11:12:45.814Z,50.70
2019-03-12T11:15:16.430Z,50.40
2019-03-12T11:17:50.013Z,50.20
2019-03-12T11:20:14.802Z,50.30
2019-03-12T11:22:42.952Z,50.60
2019-03-12T11:25:11.294Z,50.80
2019-03-12T11:27:39.546Z,50.90
2019-03-12T11:30:16.575Z,50.80
2019-03-12T11:32:48.650Z,50.40
2019-03-12T11:35:20.658Z,50.60
2019-03-12T11:37:49.015Z,50.50
2019-03-12T11:40:18.154Z,49.90
2019-03-12T11:42:46.293Z,49.30
2019-03-12T11:45:18.616Z,49.90
2019-03-12T11:47:58.664Z,49.10
2019-03-12T11:50:36.705Z,49.40
2019-03-12T11:53:17.261Z,49.40
2019-03-12T11:55:46.176Z,50.00
2019-03-12T11:58:15.753Z,50.40
2019-03-12T12:00:55.192Z,50.90
2019-03-12T12:03:23.343Z,51.10
2019-03-12T12:05:51.676Z,50.80
2019-03-12T12:08:20.065Z,50.40
2019-03-12T12:10:48.502Z,50.40
2019-03-12T12:13:17.085Z,50.50
2019-03-12T12:16:01.209Z,49.50
2019-03-12T12:18:17.225Z,50.00
2019-03-12T12:20:45.539Z,49.90
2019-03-12T12:23:13.754Z,50.80
2019-03-12T12:25:42.125Z,50.40
2019-03-12T12:28:10.332Z,49.90
2019-03-12T12:30:38.604Z,49.30
2019-03-12T12:33:07.291Z,49.80
2019-03-12T12:35:35.566Z,49.70
2019-03-12T12:38:03.898Z,50.00
2019-03-12T12:40:32.275Z,49.60
2019-03-12T12:43:00.391Z,49.70
2019-03-12T12:45:28.574Z,49.70
2019-03-12T12:47:56.998Z,49.90
2019-03-12T12:50:25.278Z,49.70
2019-03-12T12:52:53.495Z,49.90
2019-03-12T12:55:21.922Z,50.40
2019-03-12T12:57:50.143Z,50.10
2019-03-12T13:00:19.298Z,49.30
2019-03-12T13:02:47.507Z,48.90
2019-03-12T13:05:15.998Z,49.10
2019-03-12T13:07:44.304Z,49.30
2019-03-12T13:10:18.414Z,49.00
2019-03-12T13:12:51.211Z,49.10
2019-03-12T13:15:22.964Z,48.80
2019-03-12T13:17:51.327Z,48.80
2019-03-12T13:20:19.703Z,48.80
2019-03-12T13:22:47.930Z,49.30
2019-03-12T13:25:16.423Z,49.20
2019-03-12T13:27:44.745Z,49.50
2019-03-12T13:30:15.274Z,49.40
2019-03-12T13:32:43.399Z,49.90
2019-03-12T13:35:12.298Z,50.40
2019-03-12T13:37:46.064Z,49.70
2019-03-12T13:40:20.801Z,49.20
2019-03-12T13:42:49.970Z,49.30
2019-03-12T13:45:25.517Z,49.00
2019-03-12T13:47:56.007Z,49.30
2019-03-12T13:50:25.089Z,48.90
2019-03-12T13:52:53.493Z,48.60
2019-03-12T13:55:21.882Z,49.40
2019-03-12T13:57:50.311Z,49.40
2019-03-12T14:00:22.462Z,49.60
2019-03-12T14:02:50.898Z,49.40
2019-03-12T14:05:19.222Z,49.40
2019-03-12T14:07:47.683Z,50.00
2019-03-12T14:10:18.690Z,49.90
2019-03-12T14:12:47.160Z,49.80
2019-03-12T14:15:18.819Z,50.40
2019-03-12T14:17:49.742Z,50.80
2019-03-12T14:20:45.505Z,51.10
2019-03-12T14:23:37.765Z,52.00
2019-03-12T14:26:08.522Z,52.00
2019-03-12T14:28:42.641Z,52.60
2019-03-12T14:31:15.145Z,52.90
2019-03-12T14:33:43.487Z,53.40
2019-03-12T14:36:55.174Z,54.20
2019-03-12T14:39:23.837Z,54.70
2019-03-12T14:41:59.622Z,54.80
2019-03-12T14:44:27.822Z,54.70
2019-03-12T14:46:56.196Z,54.70
2019-03-12T14:49:48.017Z,54.70
2019-03-12T14:52:25.181Z,55.00
2019-03-12T14:54:55.175Z,55.30
2019-03-12T14:57:23.746Z,55.40
2019-03-12T14:59:52.308Z,55.80
2019-03-12T15:02:20.798Z,56.10
2019-03-12T15:04:48.982Z,55.80
2019-03-12T15:07:17.632Z,56.10
2019-03-12T15:09:50.862Z,56.70
2019-03-12T15:12:57.586Z,56.60
2019-03-12T15:15:27.009Z,57.00
2019-03-12T15:17:58.741Z,57.30
2019-03-12T15:21:00.047Z,57.10
2019-03-12T15:23:34.899Z,56.70
2019-03-12T15:26:16.010Z,57.20
2019-03-12T15:29:04.428Z,57.30
2019-03-12T15:32:10.503Z,57.40
2019-03-12T15:34:59.729Z,57.30
2019-03-12T15:37:39.536Z,58.60
2019-03-12T15:40:20.347Z,57.90
2019-03-12T15:42:59.418Z,58.10
2019-03-12T15:45:47.070Z,58.30
2019-03-12T15:51:37.329Z,58.70
2019-03-12T15:54:16.824Z,59.10
2019-03-12T15:56:56.633Z,59.40
2019-03-12T15:59:25.405Z,59.60
2019-03-12T16:02:03.626Z,59.60
2019-03-12T16:04:53.947Z,59.90
2019-03-12T16:07:31.407Z,60.40
2019-03-12T16:10:13.531Z,60.90
2019-03-12T16:12:53.006Z,61.50
2019-03-12T16:15:49.542Z,61.70
2019-03-12T16:18:39.408Z,62.50
2019-03-12T16:21:17.921Z,63.00
2019-03-12T16:24:26.476Z,63.20
2019-03-12T16:27:05.173Z,63.90
2019-03-12T16:29:54.481Z,64.20
2019-03-12T16:32:29.978Z,64.90
2019-03-12T16:35:12.586Z,65.00
2019-03-12T16:38:07.526Z,65.30
2019-03-12T16:40:38.538Z,65.60
2019-03-12T16:43:13.142Z,66.40
2019-03-12T16:45:52.363Z,66.70
2019-03-12T16:48:46.936Z,67.10
2019-03-12T16:54:26.282Z,67.40
2019-03-12T16:56:58.955Z,68.10
2019-03-12T16:59:37.558Z,68.40
2019-03-12T17:02:32.442Z,68.70
2019-03-12T17:05:46.659Z,69.30
2019-03-12T17:08:14.894Z,69.50
2019-03-12T17:10:55.634Z,69.90
2019-03-12T17:13:13.025Z,70.30
2019-03-12T17:15:55.592Z,70.70
2019-03-12T17:18:30.914Z,71.00
2019-03-12T17:21:02.675Z,71.30
2019-03-12T17:24:33.951Z,71.50
2019-03-12T17:27:36.149Z,71.80
2019-03-12T17:30:35.576Z,72.20
2019-03-12T17:33:46.725Z,71.80
2019-03-12T17:36:19.484Z,72.70
2019-03-12T17:39:14.430Z,73.30
2019-03-12T17:42:06.762Z,73.80
2019-03-12T17:44:46.794Z,74.00
2019-03-12T17:47:21.537Z,74.20
2019-03-12T17:50:18.925Z,74.80
2019-03-12T17:52:48.692Z,75.30
2019-03-12T17:55:27.169Z,75.40
2019-03-12T17:58:08.848Z,75.80
2019-03-12T18:00:46.258Z,76.30
2019-03-12T18:03:19.495Z,77.00
2019-03-12T18:05:48.227Z,77.40
2019-03-12T18:08:17.384Z,77.70
2019-03-12T18:11:06.263Z,78.10
2019-03-12T18:13:31.080Z,78.80
2019-03-12T18:16:04.539Z,79.40
2019-03-12T18:18:42.399Z,79.70
2019-03-12T18:21:27.133Z,79.70
2019-03-12T18:24:18.412Z,80.40
2019-03-12T18:26:49.070Z,79.50
2019-03-12T18:29:21.714Z,79.90
2019-03-12T18:31:59.230Z,80.10
2019-03-12T18:34:37.291Z,80.90
2019-03-12T18:37:10.475Z,81.20
2019-03-12T18:40:01.576Z,81.90
2019-03-12T18:42:37.830Z,82.50
2019-03-12T18:45:09.085Z,83.30
2019-03-12T18:47:37.313Z,84.60
2019-03-12T18:50:06.574Z,86.10
2019-03-12T18:52:34.779Z,87.10
2019-03-12T18:55:03.170Z,88.00
2019-03-12T18:57:31.265Z,88.30
2019-03-12T18:59:59.366Z,88.90
2019-03-12T19:02:27.517Z,90.10
2019-03-12T19:04:55.620Z,90.40
2019-03-12T19:07:23.975Z,90.90
2019-03-12T19:09:52.179Z,91.10
2019-03-12T19:12:20.347Z,91.40
2019-03-12T19:14:48.450Z,91.90
2019-03-12T19:17:16.774Z,92.10
2019-03-12T19:19:45.499Z,92.00
2019-03-12T19:22:13.747Z,92.10
2019-03-12T19:24:41.970Z,92.40
2019-03-12T19:27:10.255Z,92.50
2019-03-12T19:29:38.474Z,92.50
2019-03-12T19:32:35.110Z,92.60
2019-03-12T19:35:03.968Z,92.70
2019-03-12T19:37:32.106Z,92.80
2019-03-12T19:40:00.379Z,93.10
2019-03-12T19:42:29.186Z,93.50
2019-03-12T19:44:57.523Z,93.80
2019-03-12T19:47:27.967Z,93.60
2019-03-12T19:49:56.070Z,93.40
2019-03-12T19:52:24.771Z,93.90
2019-03-12T19:54:52.858Z,94.10
2019-03-12T19:57:21.108Z,93.80
2019-03-12T19:59:49.300Z,93.80
2019-03-12T20:02:18.237Z,93.90
2019-03-12T20:04:47.456Z,93.70
2019-03-12T20:07:16.561Z,94.10
2019-03-12T20:09:52.275Z,94.50
2019-03-12T20:13:00.931Z,95.20
2019-03-12T20:16:09.679Z,95.80
2019-03-12T20:19:22.313Z,96.00
2019-03-12T20:22:31.123Z,97.10
2019-03-12T20:25:35.525Z,98.30
2019-03-12T20:28:39.899Z,98.60
2019-03-12T20:31:52.982Z,99.40
2019-03-12T20:34:53.606Z,99.90
2019-03-12T20:37:57.841Z,99.90
2019-03-12T20:41:25.555Z,99.90
2019-03-12T20:44:22.814Z,99.90
2019-03-12T20:47:30.359Z,99.90
2019-03-12T20:50:31.324Z,99.90
2019-03-12T20:53:48.770Z,99.90
2019-03-12T20:57:09.493Z,99.90
2019-03-12T21:00:34.932Z,99.90
2019-03-12T21:03:43.251Z,99.90
2019-03-12T21:06:41.450Z,99.90
2019-03-12T21:09:56.250Z,99.90
2019-03-12T21:13:09.494Z,99.90
2019-03-12T21:16:28.554Z,99.90
2019-03-12T21:19:40.131Z,99.90
2019-03-12T21:22:27.165Z,99.90
2019-03-12T21:25:24.838Z,99.90
2019-03-12T21:28:40.215Z,99.90
2019-03-12T21:31:11.118Z,99.90
2019-03-12T21:33:39.319Z,99.90
2019-03-12T21:36:08.409Z,99.90
2019-03-12T21:38:36.764Z,99.90
2019-03-12T21:41:05.097Z,99.90
2019-03-12T21:43:33.658Z,99.90
2019-03-12T21:46:01.740Z,99.90
2019-03-12T21:48:31.082Z,99.90
2019-03-12T21:50:59.285Z,99.90
2019-03-12T21:53:27.475Z,99.90
2019-03-12T21:55:55.855Z,99.90
2019-03-12T21:58:24.019Z,99.90
2019-03-12T22:00:52.306Z,99.90
2019-03-12T22:03:21.449Z,99.90
2019-03-12T22:05:49.645Z,99.90
2019-03-12T22:08:17.746Z,99.90
2019-03-12T22:10:46.259Z,99.90
2019-03-12T22:13:14.363Z,99.90
2019-03-12T22:15:42.511Z,99.90
2019-03-12T22:18:10.776Z,99.90
2019-03-12T22:20:39.476Z,99.90
2019-03-12T22:23:17.398Z,99.90
2019-03-12T22:25:45.754Z,99.90
2019-03-12T22:28:13.911Z,99.90
2019-03-12T22:30:42.258Z,99.90
2019-03-12T22:33:10.458Z,99.90
2019-03-12T22:35:39.054Z,99.90
2019-03-12T22:38:07.252Z,99.90
2019-03-12T22:40:35.450Z,99.90
2019-03-12T22:43:03.646Z,99.90
2019-03-12T22:45:31.804Z,99.90
2019-03-12T22:47:59.909Z,99.90
2019-03-12T22:50:28.063Z,99.90
2019-03-12T22:52:56.910Z,99.90
2019-03-12T22:55:25.055Z,99.90
2019-03-12T22:57:53.274Z,99.90
2019-03-12T23:00:21.747Z,99.90
2019-03-12T23:02:50.460Z,99.90
2019-03-12T23:05:19.067Z,99.90
2019-03-12T23:07:47.161Z,99.90
2019-03-12T23:10:16.270Z,99.90
2019-03-12T23:12:44.466Z,99.90
2019-03-12T23:15:16.162Z,99.90
2019-03-12T23:17:44.531Z,99.90
2019-03-12T23:20:14.394Z,99.90
2019-03-12T23:22:43.812Z,99.90
2019-03-12T23:25:13.254Z,99.90
2019-03-12T23:27:45.886Z,99.90
2019-03-12T23:30:18.166Z,99.90
2019-03-12T23:33:01.439Z,99.90
2019-03-12T23:35:32.431Z,99.90
2019-03-12T23:38:05.111Z,99.90
2019-03-12T23:41:00.136Z,99.90
2019-03-12T23:43:33.258Z,99.90
2019-03-12T23:46:01.626Z,99.90
2019-03-12T23:48:30.035Z,99.90
2019-03-12T23:50:58.580Z,99.90
2019-03-12T23:53:31.946Z,99.90
2019-03-12T23:56:13.319Z,99.90
2019-03-12T23:59:03.281Z,99.90
